createdAt,value
2017-09-19T00:00:02.812Z,97804.18
2017-09-19T00:00:34.461Z,97803.38
2017-09-19T00:01:06.106Z,97800.41
2017-09-19T00:01:37.880Z,97803.81
2017-09-19T00:02:09.540Z,97805.94
2017-09-19T00:02:41.190Z,97800.83
2017-09-19T00:03:12.837Z,97798.28
2017-09-19T00:03:44.477Z,97806.36
2017-09-19T00:04:16.557Z,97799.18
2017-09-19T00:04:48.204Z,97802.17
2017-09-19T00:05:19.858Z,97805.14
2017-09-19T00:05:51.502Z,97806.00
2017-09-19T00:06:23.292Z,97801.77
2017-09-19T00:06:54.941Z,97811.06
2017-09-19T00:07:26.581Z,97805.14
2017-09-19T00:07:58.225Z,97808.55
2017-09-19T00:08:29.865Z,97805.16
2017-09-19T00:09:01.509Z,97803.47
2017-09-19T00:09:33.153Z,97802.19
2017-09-19T00:10:04.794Z,97805.17
2017-09-19T00:10:36.480Z,97803.89
2017-09-19T00:11:08.370Z,97803.05
2017-09-19T00:11:40.319Z,97804.37
2017-09-19T00:12:11.973Z,97804.79
2017-09-19T00:12:43.622Z,97804.79
2017-09-19T00:13:15.266Z,97806.86
2017-09-19T00:13:48.113Z,97803.89
2017-09-19T00:14:21.029Z,97809.44
2017-09-19T00:14:52.673Z,97806.87
2017-09-19T00:15:24.565Z,97807.34
2017-09-19T00:15:56.526Z,97805.59
2017-09-19T00:16:28.477Z,97814.59
2017-09-19T00:17:00.279Z,97809.44
2017-09-19T00:17:31.921Z,97810.70
2017-09-19T00:18:03.709Z,97807.72
2017-09-19T00:18:35.358Z,97805.17
2017-09-19T00:19:07.611Z,97813.66
2017-09-19T00:19:40.293Z,97810.69
2017-09-19T00:20:12.120Z,97808.14
2017-09-19T00:20:43.773Z,97806.85
2017-09-19T00:21:15.430Z,97814.05
2017-09-19T00:21:47.077Z,97813.16
2017-09-19T00:22:18.721Z,97813.59
2017-09-19T00:22:50.365Z,97809.36
2017-09-19T00:23:22.005Z,97806.80
2017-09-19T00:23:53.649Z,97814.89
2017-09-19T00:24:25.296Z,97810.69
2017-09-19T00:24:56.942Z,97808.13
2017-09-19T00:25:28.835Z,97806.44
2017-09-19T00:26:00.794Z,97809.79
2017-09-19T00:26:32.442Z,97808.13
2017-09-19T00:27:04.089Z,97810.69
2017-09-19T00:27:36.036Z,97807.28
2017-09-19T00:28:07.677Z,97808.98
2017-09-19T00:28:39.325Z,97811.53
2017-09-19T00:29:10.977Z,97806.42
2017-09-19T00:29:42.625Z,97805.58
2017-09-19T00:30:14.273Z,97805.52
2017-09-19T00:30:45.917Z,97804.68
2017-09-19T00:31:17.562Z,97807.22
2017-09-19T00:31:49.213Z,97803.82
2017-09-19T00:32:20.875Z,97804.75
2017-09-19T00:32:52.581Z,97811.06
2017-09-19T00:33:24.229Z,97804.25
2017-09-19T00:33:55.873Z,97810.20
2017-09-19T00:34:27.513Z,97807.64
2017-09-19T00:34:59.165Z,97805.52
2017-09-19T00:35:30.817Z,97811.05
2017-09-19T00:36:02.457Z,97803.38
2017-09-19T00:36:34.097Z,97804.66
2017-09-19T00:37:05.741Z,97796.57
2017-09-19T00:37:37.389Z,97801.67
2017-09-19T00:38:09.090Z,97806.36
2017-09-19T00:38:40.741Z,97804.23
2017-09-19T00:39:12.385Z,97808.48
2017-09-19T00:39:44.030Z,97797.41
2017-09-19T00:40:15.679Z,97805.45
2017-09-19T00:40:47.325Z,97807.63
2017-09-19T00:41:18.982Z,97804.67
2017-09-19T00:41:50.666Z,97806.36
2017-09-19T00:42:22.317Z,97804.66
2017-09-19T00:42:53.965Z,97808.90
2017-09-19T00:43:25.655Z,97803.33
2017-09-19T00:43:57.301Z,97807.63
2017-09-19T00:44:29.155Z,97801.19
2017-09-19T00:45:00.823Z,97801.17
2017-09-19T00:45:32.479Z,97801.18
2017-09-19T00:46:04.121Z,97800.33
2017-09-19T00:46:35.769Z,97805.44
2017-09-19T00:47:07.422Z,97797.77
2017-09-19T00:47:39.061Z,97802.45
2017-09-19T00:48:10.701Z,97796.49
2017-09-19T00:48:42.342Z,97800.77
2017-09-19T00:49:14.267Z,97803.73
2017-09-19T00:49:45.917Z,97799.91
2017-09-19T00:50:17.565Z,97801.61
2017-09-19T00:50:49.208Z,97796.98
2017-09-19T00:51:20.849Z,97799.06
2017-09-19T00:51:52.537Z,97802.52
2017-09-19T00:52:24.193Z,97798.70
2017-09-19T00:52:56.069Z,97806.37
2017-09-19T00:53:27.952Z,97806.79
2017-09-19T00:53:59.597Z,97806.79
2017-09-19T00:54:31.241Z,97803.38
2017-09-19T00:55:02.897Z,97804.67
2017-09-19T00:55:34.541Z,97797.00
2017-09-19T00:56:06.182Z,97803.81
2017-09-19T00:56:37.871Z,97805.95
2017-09-19T00:57:09.565Z,97799.56
2017-09-19T00:57:41.209Z,97806.37
2017-09-19T00:58:12.853Z,97798.72
2017-09-19T00:58:44.746Z,97804.67
2017-09-19T00:59:16.393Z,97804.30
2017-09-19T00:59:48.044Z,97805.95
2017-09-19T01:00:19.685Z,97798.29
2017-09-19T01:00:51.328Z,97803.02
2017-09-19T01:01:23.014Z,97792.38
2017-09-19T01:01:54.713Z,97801.75
2017-09-19T01:02:26.353Z,97797.94
2017-09-19T01:02:58.014Z,97797.13
2017-09-19T01:03:29.666Z,97798.00
2017-09-19T01:04:01.313Z,97796.36
2017-09-19T01:04:32.965Z,97800.61
2017-09-19T01:05:04.609Z,97801.89
2017-09-19T01:05:36.253Z,97805.30
2017-09-19T01:06:07.893Z,97801.48
2017-09-19T01:06:39.680Z,97801.48
2017-09-19T01:07:11.372Z,97801.48
2017-09-19T01:07:43.017Z,97798.05
2017-09-19T01:08:14.860Z,97803.47
2017-09-19T01:08:46.505Z,97802.59
2017-09-19T01:09:18.198Z,97800.11
2017-09-19T01:09:49.853Z,97799.77
2017-09-19T01:10:21.497Z,97805.73
2017-09-19T01:10:53.428Z,97799.84
2017-09-19T01:11:25.085Z,97799.91
2017-09-19T01:11:56.733Z,97803.30
2017-09-19T01:12:28.429Z,97803.33
2017-09-19T01:13:00.303Z,97801.24
2017-09-19T01:13:31.957Z,97799.54
2017-09-19T01:14:03.605Z,97803.39
2017-09-19T01:14:35.253Z,97800.84
2017-09-19T01:15:06.897Z,97803.83
2017-09-19T01:15:38.545Z,97797.91
2017-09-19T01:16:10.185Z,97801.73
2017-09-19T01:16:41.829Z,97801.75
2017-09-19T01:17:13.479Z,97796.22
2017-09-19T01:17:45.357Z,97800.88
2017-09-19T01:18:17.025Z,97798.33
2017-09-19T01:18:48.979Z,97802.64
2017-09-19T01:19:20.806Z,97800.46
2017-09-19T01:19:52.569Z,97798.80
2017-09-19T01:20:24.449Z,97798.39
2017-09-19T01:20:56.097Z,97793.30
2017-09-19T01:21:27.745Z,97797.13
2017-09-19T01:21:59.385Z,97795.03
2017-09-19T01:22:31.025Z,97794.20
2017-09-19T01:23:03.035Z,97786.53
2017-09-19T01:23:34.685Z,97792.91
2017-09-19T01:24:06.335Z,97792.50
2017-09-19T01:24:37.979Z,97792.08
2017-09-19T01:25:09.621Z,97791.23
2017-09-19T01:25:41.268Z,97789.96
2017-09-19T01:26:12.921Z,97791.66
2017-09-19T01:26:44.563Z,97789.96
2017-09-19T01:27:16.213Z,97790.00
2017-09-19T01:27:47.865Z,97790.43
2017-09-19T01:28:19.589Z,97787.88
2017-09-19T01:28:51.233Z,97789.16
2017-09-19T01:29:22.873Z,97793.84
2017-09-19T01:29:54.686Z,97790.02
2017-09-19T01:30:26.569Z,97792.98
2017-09-19T01:30:58.220Z,97789.17
2017-09-19T01:31:29.861Z,97793.41
2017-09-19T01:32:01.510Z,97789.59
2017-09-19T01:32:33.157Z,97794.71
2017-09-19T01:33:04.801Z,97795.59
2017-09-19T01:33:36.445Z,97791.80
2017-09-19T01:34:08.089Z,97791.37
2017-09-19T01:34:39.796Z,97790.50
2017-09-19T01:35:11.444Z,97792.22
2017-09-19T01:35:43.086Z,97794.82
2017-09-19T01:36:14.737Z,97789.72
2017-09-19T01:36:46.381Z,97789.30
2017-09-19T01:37:18.030Z,97789.74
2017-09-19T01:37:49.674Z,97789.74
2017-09-19T01:38:21.318Z,97787.18
2017-09-19T01:38:52.963Z,97789.31
2017-09-19T01:39:24.613Z,97786.77
2017-09-19T01:39:56.305Z,97791.44
2017-09-19T01:40:27.949Z,97786.34
2017-09-19T01:40:59.589Z,97780.80
2017-09-19T01:41:31.233Z,97789.78
2017-09-19T01:42:02.881Z,97787.23
2017-09-19T01:42:34.527Z,97787.67
2017-09-19T01:43:06.173Z,97784.69
2017-09-19T01:43:37.991Z,97786.40
2017-09-19T01:44:09.641Z,97788.95
2017-09-19T01:44:41.285Z,97780.45
2017-09-19T01:45:12.933Z,97786.40
2017-09-19T01:45:44.586Z,97788.94
2017-09-19T01:46:16.229Z,97789.38
2017-09-19T01:46:47.880Z,97786.83
2017-09-19T01:47:19.529Z,97787.69
2017-09-19T01:47:51.177Z,97783.42
2017-09-19T01:48:22.823Z,97784.32
2017-09-19T01:48:54.716Z,97785.17
2017-09-19T01:49:26.365Z,97785.59
2017-09-19T01:49:58.009Z,97785.61
2017-09-19T01:50:29.949Z,97792.00
2017-09-19T01:51:01.602Z,97786.89
2017-09-19T01:51:33.253Z,97789.03
2017-09-19T01:52:04.901Z,97785.20
2017-09-19T01:52:36.541Z,97787.75
2017-09-19T01:53:08.189Z,97788.22
2017-09-19T01:53:39.829Z,97787.37
2017-09-19T01:54:11.725Z,97789.50
2017-09-19T01:54:43.389Z,97789.88
2017-09-19T01:55:15.270Z,97789.08
2017-09-19T01:55:46.913Z,97787.41
2017-09-19T01:56:18.557Z,97784.05
2017-09-19T01:56:50.240Z,97787.88
2017-09-19T01:57:21.908Z,97781.98
2017-09-19T01:57:53.588Z,97783.20
2017-09-19T01:58:25.254Z,97791.72
2017-09-19T01:58:56.902Z,97782.78
2017-09-19T01:59:28.585Z,97786.17
2017-09-19T02:00:00.229Z,97785.74
2017-09-19T02:00:31.873Z,97784.45
2017-09-19T02:01:03.517Z,97786.10
2017-09-19T02:01:35.161Z,97784.83
2017-09-19T02:02:06.805Z,97783.97
2017-09-19T02:02:38.445Z,97785.67
2017-09-19T02:03:10.085Z,97780.98
2017-09-19T02:03:41.730Z,97783.55
2017-09-19T02:04:13.413Z,97781.43
2017-09-19T02:04:45.057Z,97783.13
2017-09-19T02:05:16.745Z,97784.41
2017-09-19T02:05:48.393Z,97780.16
2017-09-19T02:06:20.041Z,97788.66
2017-09-19T02:06:51.685Z,97781.00
2017-09-19T02:07:23.366Z,97785.68
2017-09-19T02:07:55.234Z,97786.53
2017-09-19T02:08:27.003Z,97784.41
2017-09-19T02:08:58.706Z,97790.79
2017-09-19T02:09:30.594Z,97787.39
2017-09-19T02:10:02.246Z,97784.84
2017-09-19T02:10:33.894Z,97792.06
2017-09-19T02:11:05.537Z,97789.09
2017-09-19T02:11:37.181Z,97792.06
2017-09-19T02:12:08.825Z,97788.23
2017-09-19T02:12:40.477Z,97789.95
2017-09-19T02:13:12.116Z,97787.82
2017-09-19T02:13:43.765Z,97792.97
2017-09-19T02:14:15.681Z,97794.26
2017-09-19T02:14:47.564Z,97792.56
2017-09-19T02:15:19.214Z,97792.14
2017-09-19T02:15:50.857Z,97787.88
2017-09-19T02:16:22.561Z,97792.14
2017-09-19T02:16:54.205Z,97790.02
2017-09-19T02:17:25.849Z,97789.16
2017-09-19T02:17:57.492Z,97790.86
2017-09-19T02:18:29.141Z,97791.72
2017-09-19T02:19:00.785Z,97791.76
2017-09-19T02:19:32.437Z,97787.03
2017-09-19T02:20:04.089Z,97785.75
2017-09-19T02:20:35.740Z,97790.42
2017-09-19T02:21:07.638Z,97792.97
2017-09-19T02:21:39.586Z,97790.00
2017-09-19T02:22:11.536Z,97792.08
2017-09-19T02:22:43.485Z,97796.33
2017-09-19T02:23:15.314Z,97786.97
2017-09-19T02:23:47.075Z,97790.36
2017-09-19T02:24:18.910Z,97795.03
2017-09-19T02:24:50.666Z,97789.45
2017-09-19T02:25:22.317Z,97789.87
2017-09-19T02:25:53.965Z,97792.41
2017-09-19T02:26:25.613Z,97795.33
2017-09-19T02:26:57.288Z,97798.23
2017-09-19T02:27:28.929Z,97793.94
2017-09-19T02:28:00.575Z,97789.59
2017-09-19T02:28:32.221Z,97791.72
2017-09-19T02:29:03.870Z,97795.49
2017-09-19T02:29:35.568Z,97799.73
2017-09-19T02:30:07.213Z,97789.45
2017-09-19T02:30:38.857Z,97795.83
2017-09-19T02:31:10.502Z,97795.82
2017-09-19T02:31:42.156Z,97792.80
2017-09-19T02:32:13.801Z,97794.89
2017-09-19T02:32:45.454Z,97796.59
2017-09-19T02:33:17.100Z,97791.03
2017-09-19T02:33:48.741Z,97798.69
2017-09-19T02:34:20.389Z,97788.48
2017-09-19T02:34:52.172Z,97789.75
2017-09-19T02:35:23.828Z,97796.98
2017-09-19T02:35:55.477Z,97790.13
2017-09-19T02:36:27.117Z,97789.69
2017-09-19T02:36:58.781Z,97792.68
2017-09-19T02:37:30.425Z,97794.31
2017-09-19T02:38:02.077Z,97792.17
2017-09-19T02:38:33.919Z,97799.27
2017-09-19T02:39:05.566Z,97793.67
2017-09-19T02:39:37.214Z,97792.38
2017-09-19T02:40:08.910Z,97794.44
2017-09-19T02:40:40.558Z,97794.88
2017-09-19T02:41:12.206Z,97791.89
2017-09-19T02:41:43.850Z,97788.84
2017-09-19T02:42:15.496Z,97793.50
2017-09-19T02:42:47.142Z,97794.34
2017-09-19T02:43:18.794Z,97790.54
2017-09-19T02:43:50.437Z,97792.23
2017-09-19T02:44:22.084Z,97790.11
2017-09-19T02:44:53.729Z,97796.48
2017-09-19T02:45:25.623Z,97793.95
2017-09-19T02:45:57.286Z,97791.39
2017-09-19T02:46:28.941Z,97789.75
2017-09-19T02:47:00.602Z,97791.89
2017-09-19T02:47:32.249Z,97793.19
2017-09-19T02:48:03.953Z,97797.86
2017-09-19T02:48:35.593Z,97801.33
2017-09-19T02:49:07.238Z,97791.17
2017-09-19T02:49:38.885Z,97795.42
2017-09-19T02:50:10.526Z,97797.98
2017-09-19T02:50:42.177Z,97796.70
2017-09-19T02:51:13.822Z,97789.89
2017-09-19T02:51:45.466Z,97793.73
2017-09-19T02:52:17.114Z,97797.14
2017-09-19T02:52:48.769Z,97799.34
2017-09-19T02:53:20.560Z,97795.94
2017-09-19T02:53:52.213Z,97795.95
2017-09-19T02:54:23.857Z,97795.10
2017-09-19T02:54:55.797Z,97792.55
2017-09-19T02:55:27.494Z,97797.70
2017-09-19T02:55:59.149Z,97788.76
2017-09-19T02:56:31.026Z,97791.69
2017-09-19T02:57:02.678Z,97795.94
2017-09-19T02:57:34.326Z,97792.11
2017-09-19T02:58:05.970Z,97795.57
2017-09-19T02:58:37.614Z,97790.89
2017-09-19T02:59:09.265Z,97789.20
2017-09-19T02:59:40.909Z,97787.97
2017-09-19T03:00:12.558Z,97791.39
2017-09-19T03:00:44.261Z,97789.69
2017-09-19T03:01:16.104Z,97790.55
2017-09-19T03:01:47.756Z,97786.30
2017-09-19T03:02:19.405Z,97791.41
2017-09-19T03:02:51.055Z,97791.02
2017-09-19T03:03:22.709Z,97788.91
2017-09-19T03:03:54.350Z,97789.75
2017-09-19T03:04:25.989Z,97793.16
2017-09-19T03:04:57.630Z,97791.45
2017-09-19T03:05:29.273Z,97791.48
2017-09-19T03:06:00.961Z,97791.06
2017-09-19T03:06:32.605Z,97787.22
2017-09-19T03:07:04.254Z,97794.03
2017-09-19T03:07:35.941Z,97788.55
2017-09-19T03:08:07.585Z,97788.08
2017-09-19T03:08:39.244Z,97787.69
2017-09-19T03:09:10.897Z,97788.92
2017-09-19T03:09:42.541Z,97780.88
2017-09-19T03:10:14.327Z,97788.98
2017-09-19T03:10:46.150Z,97783.03
2017-09-19T03:11:17.931Z,97780.89
2017-09-19T03:11:49.581Z,97779.20
2017-09-19T03:12:21.225Z,97780.47
2017-09-19T03:12:52.869Z,97780.88
2017-09-19T03:13:24.509Z,97781.77
2017-09-19T03:13:56.154Z,97780.92
2017-09-19T03:14:27.797Z,97783.91
2017-09-19T03:14:59.442Z,97787.75
2017-09-19T03:15:31.085Z,97782.22
2017-09-19T03:16:02.733Z,97779.67
2017-09-19T03:16:34.373Z,97782.69
2017-09-19T03:17:06.256Z,97783.98
2017-09-19T03:17:37.926Z,97778.02
2017-09-19T03:18:09.752Z,97774.64
2017-09-19T03:18:41.522Z,97781.02
2017-09-19T03:19:13.209Z,97774.20
2017-09-19T03:19:44.860Z,97775.48
2017-09-19T03:20:16.752Z,97773.36
2017-09-19T03:20:48.596Z,97775.91
2017-09-19T03:21:20.344Z,97775.53
2017-09-19T03:21:51.994Z,97770.86
2017-09-19T03:22:23.651Z,97775.91
2017-09-19T03:22:55.293Z,97775.47
2017-09-19T03:23:26.938Z,97779.36
2017-09-19T03:23:58.581Z,97775.55
2017-09-19T03:24:30.460Z,97778.53
2017-09-19T03:25:02.145Z,97776.39
2017-09-19T03:25:33.793Z,97773.00
2017-09-19T03:26:05.438Z,97773.06
2017-09-19T03:26:37.093Z,97778.94
2017-09-19T03:27:08.750Z,97778.95
2017-09-19T03:27:40.393Z,97782.37
2017-09-19T03:28:12.053Z,97776.88
2017-09-19T03:28:43.700Z,97779.00
2017-09-19T03:29:15.586Z,97775.17
2017-09-19T03:29:47.535Z,97773.91
2017-09-19T03:30:19.186Z,97775.19
2017-09-19T03:30:51.116Z,97778.17
2017-09-19T03:31:22.769Z,97773.92
2017-09-19T03:31:54.425Z,97774.34
2017-09-19T03:32:26.077Z,97779.87
2017-09-19T03:32:57.745Z,97777.32
2017-09-19T03:33:29.389Z,97771.73
2017-09-19T03:34:01.035Z,97777.25
2017-09-19T03:34:32.685Z,97775.53
2017-09-19T03:35:04.385Z,97773.84
2017-09-19T03:35:36.037Z,97777.68
2017-09-19T03:36:07.701Z,97777.67
2017-09-19T03:36:39.349Z,97778.09
2017-09-19T03:37:11.045Z,97775.96
2017-09-19T03:37:42.694Z,97773.41
2017-09-19T03:38:14.339Z,97778.94
2017-09-19T03:38:45.982Z,97773.41
2017-09-19T03:39:17.625Z,97775.53
2017-09-19T03:39:49.273Z,97776.81
2017-09-19T03:40:20.925Z,97778.95
2017-09-19T03:40:52.573Z,97775.56
2017-09-19T03:41:24.225Z,97778.16
2017-09-19T03:41:55.870Z,97775.18
2017-09-19T03:42:27.561Z,97772.64
2017-09-19T03:42:59.249Z,97779.87
2017-09-19T03:43:30.898Z,97776.47
2017-09-19T03:44:02.545Z,97773.49
2017-09-19T03:44:34.193Z,97774.34
2017-09-19T03:45:05.877Z,97769.23
2017-09-19T03:45:37.522Z,97770.93
2017-09-19T03:46:09.173Z,97777.75
2017-09-19T03:46:40.814Z,97769.67
2017-09-19T03:47:12.453Z,97776.52
2017-09-19T03:47:44.098Z,97768.87
2017-09-19T03:48:15.930Z,97779.93
2017-09-19T03:48:47.582Z,97779.88
2017-09-19T03:49:19.230Z,97774.78
2017-09-19T03:49:50.873Z,97773.11
2017-09-19T03:50:22.521Z,97768.88
2017-09-19T03:50:54.161Z,97772.72
2017-09-19T03:51:25.801Z,97769.36
2017-09-19T03:51:57.445Z,97776.16
2017-09-19T03:52:29.089Z,97766.80
2017-09-19T03:53:01.749Z,97769.80
2017-09-19T03:53:33.443Z,97773.20
2017-09-19T03:54:05.213Z,97766.81
2017-09-19T03:54:37.097Z,97769.37
2017-09-19T03:55:08.804Z,97774.84
2017-09-19T03:55:40.500Z,97768.46
2017-09-19T03:56:12.154Z,97770.58
2017-09-19T03:56:44.037Z,97769.31
2017-09-19T03:57:15.870Z,97768.46
2017-09-19T03:57:47.628Z,97771.42
2017-09-19T03:58:19.577Z,97771.86
2017-09-19T03:58:51.229Z,97771.84
2017-09-19T03:59:22.873Z,97775.67
2017-09-19T03:59:54.519Z,97775.67
2017-09-19T04:00:26.162Z,97772.23
2017-09-19T04:00:57.985Z,97777.80
2017-09-19T04:01:29.736Z,97774.40
2017-09-19T04:02:01.389Z,97777.76
2017-09-19T04:02:33.034Z,97773.97
2017-09-19T04:03:04.677Z,97776.53
2017-09-19T04:03:36.317Z,97774.41
2017-09-19T04:04:07.966Z,97776.95
2017-09-19T04:04:39.617Z,97774.84
2017-09-19T04:05:11.266Z,97779.09
2017-09-19T04:05:42.948Z,97773.13
2017-09-19T04:06:14.601Z,97774.83
2017-09-19T04:06:46.463Z,97773.55
2017-09-19T04:07:18.121Z,97779.89
2017-09-19T04:07:49.774Z,97779.94
2017-09-19T04:08:21.422Z,97773.14
2017-09-19T04:08:53.078Z,97772.72
2017-09-19T04:09:24.733Z,97773.57
2017-09-19T04:09:56.387Z,97771.48
2017-09-19T04:10:28.037Z,97776.13
2017-09-19T04:10:59.803Z,97773.98
2017-09-19T04:11:31.547Z,97769.37
2017-09-19T04:12:03.193Z,97773.20
2017-09-19T04:12:34.841Z,97775.33
2017-09-19T04:13:06.530Z,97772.37
2017-09-19T04:13:38.258Z,97770.66
2017-09-19T04:14:10.040Z,97775.34
2017-09-19T04:14:41.705Z,97772.37
2017-09-19T04:15:13.317Z,97767.30
2017-09-19T04:15:44.989Z,97769.86
2017-09-19T04:16:16.681Z,97770.28
2017-09-19T04:16:48.333Z,97777.94
2017-09-19T04:17:20.181Z,97772.42
2017-09-19T04:17:51.864Z,97770.30
2017-09-19T04:18:23.521Z,97769.87
2017-09-19T04:18:55.210Z,97776.66
2017-09-19T04:19:27.097Z,97776.23
2017-09-19T04:19:58.748Z,97780.50
2017-09-19T04:20:30.357Z,97778.38
2017-09-19T04:21:02.019Z,97781.34
2017-09-19T04:21:33.684Z,97773.70
2017-09-19T04:22:05.613Z,97774.55
2017-09-19T04:22:37.265Z,97777.52
2017-09-19T04:23:08.913Z,97779.66
2017-09-19T04:23:40.561Z,97780.52
2017-09-19T04:24:12.218Z,97777.53
2017-09-19T04:24:43.869Z,97775.41
2017-09-19T04:25:15.522Z,97776.69
2017-09-19T04:25:47.416Z,97777.11
2017-09-19T04:26:19.071Z,97778.44
2017-09-19T04:26:50.741Z,97773.75
2017-09-19T04:27:22.438Z,97781.42
2017-09-19T04:27:54.106Z,97779.72
2017-09-19T04:28:25.758Z,97778.44
2017-09-19T04:28:57.571Z,97776.32
2017-09-19T04:29:29.218Z,97781.01
2017-09-19T04:30:00.875Z,97784.41
2017-09-19T04:30:32.522Z,97778.02
2017-09-19T04:31:04.182Z,97783.98
2017-09-19T04:31:35.826Z,97786.12
2017-09-19T04:32:07.514Z,97781.91
2017-09-19T04:32:39.207Z,97777.61
2017-09-19T04:33:10.858Z,97783.57
2017-09-19T04:33:42.510Z,97778.03
2017-09-19T04:34:14.634Z,97778.45
2017-09-19T04:34:46.285Z,97779.70
2017-09-19T04:35:18.186Z,97775.41
2017-09-19T04:35:49.835Z,97780.52
2017-09-19T04:36:21.674Z,97776.67
2017-09-19T04:36:53.437Z,97777.94
2017-09-19T04:37:25.090Z,97779.17
2017-09-19T04:37:56.733Z,97773.64
2017-09-19T04:38:28.375Z,97778.75
2017-09-19T04:39:00.017Z,97774.55
2017-09-19T04:39:31.665Z,97772.34
2017-09-19T04:40:03.305Z,97772.37
2017-09-19T04:40:34.953Z,97777.45
2017-09-19T04:41:06.593Z,97776.55
2017-09-19T04:41:38.235Z,97771.92
2017-09-19T04:42:10.158Z,97777.02
2017-09-19T04:42:41.861Z,97779.11
2017-09-19T04:43:13.513Z,97779.89
2017-09-19T04:43:45.161Z,97775.19
2017-09-19T04:44:16.865Z,97777.73
2017-09-19T04:44:48.561Z,97778.53
2017-09-19T04:45:20.225Z,97782.78
2017-09-19T04:45:51.873Z,97779.38
2017-09-19T04:46:23.517Z,97778.47
2017-09-19T04:46:55.173Z,97781.02
2017-09-19T04:47:26.817Z,97774.62
2017-09-19T04:47:58.457Z,97784.82
2017-09-19T04:48:30.167Z,97779.72
2017-09-19T04:49:02.141Z,97785.64
2017-09-19T04:49:34.035Z,97785.98
2017-09-19T04:50:05.703Z,97785.58
2017-09-19T04:50:37.359Z,97786.84
2017-09-19T04:51:09.009Z,97783.39
2017-09-19T04:51:40.658Z,97781.25
2017-09-19T04:52:12.306Z,97785.91
2017-09-19T04:52:43.953Z,97782.89
2017-09-19T04:53:15.599Z,97785.44
2017-09-19T04:53:47.237Z,97787.50
2017-09-19T04:54:18.885Z,97781.61
2017-09-19T04:54:50.770Z,97787.06
2017-09-19T04:55:22.431Z,97787.48
2017-09-19T04:55:54.085Z,97779.34
2017-09-19T04:56:25.729Z,97789.55
2017-09-19T04:56:57.381Z,97778.91
2017-09-19T04:57:29.025Z,97781.05
2017-09-19T04:58:00.665Z,97788.70
2017-09-19T04:58:32.309Z,97786.16
2017-09-19T04:59:03.953Z,97781.52
2017-09-19T04:59:35.595Z,97781.47
2017-09-19T05:00:07.237Z,97787.91
2017-09-19T05:00:38.886Z,97783.61
2017-09-19T05:01:10.529Z,97787.00
2017-09-19T05:01:42.173Z,97787.06
2017-09-19T05:02:13.825Z,97784.93
2017-09-19T05:02:45.477Z,97783.66
2017-09-19T05:03:17.137Z,97790.04
2017-09-19T05:03:49.010Z,97785.34
2017-09-19T05:04:20.663Z,97782.80
2017-09-19T05:04:52.353Z,97789.19
2017-09-19T05:05:24.245Z,97788.70
2017-09-19T05:05:55.942Z,97793.39
2017-09-19T05:06:27.834Z,97789.19
2017-09-19T05:06:59.494Z,97791.33
2017-09-19T05:07:31.142Z,97791.33
2017-09-19T05:08:02.794Z,97792.66
2017-09-19T05:08:34.709Z,97790.97
2017-09-19T05:09:06.362Z,97785.44
2017-09-19T05:09:38.014Z,97787.58
2017-09-19T05:10:09.661Z,97796.56
2017-09-19T05:10:41.304Z,97787.19
2017-09-19T05:11:12.951Z,97793.10
2017-09-19T05:11:44.594Z,97793.53
2017-09-19T05:12:16.236Z,97793.58
2017-09-19T05:12:48.150Z,97789.34
2017-09-19T05:13:19.798Z,97792.73
2017-09-19T05:13:51.441Z,97792.74
2017-09-19T05:14:23.085Z,97793.59
2017-09-19T05:14:54.741Z,97791.91
2017-09-19T05:15:26.381Z,97796.64
2017-09-19T05:15:58.028Z,97794.97
2017-09-19T05:16:29.701Z,97797.52
2017-09-19T05:17:01.345Z,97799.23
2017-09-19T05:17:32.989Z,97799.23
2017-09-19T05:18:04.879Z,97798.83
2017-09-19T05:18:36.529Z,97798.39
2017-09-19T05:19:08.173Z,97795.89
2017-09-19T05:19:39.813Z,97798.45
2017-09-19T05:20:11.477Z,97798.41
2017-09-19T05:20:43.369Z,97796.75
2017-09-19T05:21:15.036Z,97797.61
2017-09-19T05:21:46.688Z,97794.64
2017-09-19T05:22:18.329Z,97797.23
2017-09-19T05:22:49.981Z,97798.52
2017-09-19T05:23:21.620Z,97797.66
2017-09-19T05:23:53.266Z,97798.10
2017-09-19T05:24:24.914Z,97798.53
2017-09-19T05:24:56.559Z,97798.97
2017-09-19T05:25:28.202Z,97799.01
2017-09-19T05:26:00.079Z,97804.91
2017-09-19T05:26:31.722Z,97804.07
2017-09-19T05:27:03.404Z,97797.25
2017-09-19T05:27:35.053Z,97807.05
2017-09-19T05:28:06.697Z,97800.66
2017-09-19T05:28:38.342Z,97802.36
2017-09-19T05:29:09.985Z,97804.50
2017-09-19T05:29:42.009Z,97802.42
2017-09-19T05:30:13.870Z,97810.09
2017-09-19T05:30:45.739Z,97801.15
2017-09-19T05:31:17.442Z,97809.66
2017-09-19T05:31:49.103Z,97805.41
2017-09-19T05:32:21.052Z,97807.53
2017-09-19T05:32:52.709Z,97809.23
2017-09-19T05:33:24.354Z,97804.56
2017-09-19T05:33:55.997Z,97805.05
2017-09-19T05:34:27.637Z,97801.64
2017-09-19T05:34:59.293Z,97800.73
2017-09-19T05:35:30.938Z,97799.88
2017-09-19T05:36:02.582Z,97805.84
2017-09-19T05:36:34.494Z,97804.61
2017-09-19T05:37:06.375Z,97808.45
2017-09-19T05:37:38.021Z,97805.47
2017-09-19T05:38:09.666Z,97805.48
2017-09-19T05:38:41.667Z,97804.69
2017-09-19T05:39:13.628Z,97804.20
2017-09-19T05:39:45.277Z,97805.06
2017-09-19T05:40:16.921Z,97805.96
2017-09-19T05:40:48.573Z,97800.80
2017-09-19T05:41:20.218Z,97806.34
2017-09-19T05:41:51.861Z,97807.66
2017-09-19T05:42:23.505Z,97799.16
2017-09-19T05:42:55.150Z,97801.28
2017-09-19T05:43:26.789Z,97802.55
2017-09-19T05:43:58.473Z,97802.98
2017-09-19T05:44:30.113Z,97808.08
2017-09-19T05:45:01.762Z,97811.48
2017-09-19T05:45:33.635Z,97804.27
2017-09-19T05:46:05.584Z,97807.26
2017-09-19T05:46:37.233Z,97803.89
2017-09-19T05:47:08.881Z,97800.06
2017-09-19T05:47:40.529Z,97803.05
2017-09-19T05:48:12.188Z,97806.02
2017-09-19T05:48:43.833Z,97801.34
2017-09-19T05:49:15.483Z,97800.92
2017-09-19T05:49:47.359Z,97806.45
2017-09-19T05:50:19.025Z,97803.42
2017-09-19T05:50:50.677Z,97806.80
2017-09-19T05:51:22.321Z,97806.41
2017-09-19T05:51:53.969Z,97808.53
2017-09-19T05:52:25.609Z,97804.70
2017-09-19T05:52:57.255Z,97804.27
2017-09-19T05:53:28.907Z,97804.27
2017-09-19T05:54:00.565Z,97806.41
2017-09-19T05:54:32.214Z,97809.39
2017-09-19T05:55:04.093Z,97804.28
2017-09-19T05:55:35.778Z,97808.58
2017-09-19T05:56:07.429Z,97804.33
2017-09-19T05:56:39.079Z,97803.49
2017-09-19T05:57:10.729Z,97810.30
2017-09-19T05:57:42.382Z,97808.59
2017-09-19T05:58:14.260Z,97806.45
2017-09-19T05:58:45.949Z,97811.98
2017-09-19T05:59:17.613Z,97808.16
2017-09-19T05:59:49.265Z,97807.33
2017-09-19T06:00:21.146Z,97809.49
2017-09-19T06:00:52.816Z,97807.31
2017-09-19T06:01:24.465Z,97809.02
2017-09-19T06:01:56.109Z,97801.38
2017-09-19T06:02:27.758Z,97812.44
2017-09-19T06:02:59.595Z,97809.49
2017-09-19T06:03:31.302Z,97805.19
2017-09-19T06:04:03.170Z,97809.03
2017-09-19T06:04:34.878Z,97809.44
2017-09-19T06:05:06.537Z,97809.45
2017-09-19T06:05:38.190Z,97808.59
2017-09-19T06:06:09.837Z,97807.33
2017-09-19T06:06:41.486Z,97813.28
2017-09-19T06:07:13.129Z,97809.03
2017-09-19T06:07:44.783Z,97808.23
2017-09-19T06:08:16.444Z,97810.80
2017-09-19T06:08:48.106Z,97813.35
2017-09-19T06:09:19.753Z,97809.94
2017-09-19T06:09:51.446Z,97805.67
2017-09-19T06:10:23.096Z,97810.78
2017-09-19T06:10:54.743Z,97810.77
2017-09-19T06:11:26.393Z,97804.41
2017-09-19T06:11:58.188Z,97805.27